createdAt,value
2018-06-08T00:00:16.170Z,0.00
2018-06-08T00:01:16.182Z,0.00
2018-06-08T00:02:16.100Z,0.00
2018-06-08T00:03:16.107Z,0.00
2018-06-08T00:04:16.090Z,0.00
2018-06-08T00:05:16.135Z,0.00
2018-06-08T00:06:16.094Z,0.00
2018-06-08T00:07:15.999Z,0.00
2018-06-08T00:08:16.034Z,0.00
2018-06-08T00:09:15.928Z,0.00
2018-06-08T00:10:15.927Z,0.00
2018-06-08T00:11:15.886Z,0.00
2018-06-08T00:12:15.931Z,0.00
2018-06-08T00:13:15.848Z,0.00
2018-06-08T00:14:15.887Z,0.00
2018-06-08T00:15:15.846Z,0.00
2018-06-08T00:16:15.818Z,0.00
2018-06-08T00:17:15.785Z,0.00
2018-06-08T00:18:15.757Z,0.00
2018-06-08T00:19:15.703Z,0.00
2018-06-08T00:20:15.689Z,0.00
2018-06-08T00:21:15.665Z,0.00
2018-06-08T00:22:15.631Z,0.00
2018-06-08T00:23:15.601Z,0.00
2018-06-08T00:24:15.569Z,0.00
2018-06-08T00:25:15.549Z,0.00
2018-06-08T00:26:15.527Z,0.00
2018-06-08T00:27:15.506Z,0.00
2018-06-08T00:28:15.481Z,0.00
2018-06-08T00:29:15.463Z,0.00
2018-06-08T00:30:15.459Z,0.00
2018-06-08T00:31:15.416Z,0.00
2018-06-08T00:32:15.386Z,0.00
2018-06-08T00:33:15.367Z,0.00
2018-06-08T00:34:15.339Z,0.00
2018-06-08T00:35:15.308Z,0.00
2018-06-08T00:36:15.289Z,0.00
2018-06-08T00:37:15.262Z,0.00
2018-06-08T00:38:15.259Z,0.00
2018-06-08T00:39:15.220Z,0.00
2018-06-08T00:40:15.206Z,0.00
2018-06-08T00:41:15.178Z,0.00
2018-06-08T00:42:15.149Z,0.00
2018-06-08T00:43:15.135Z,0.00
2018-06-08T00:44:15.109Z,0.00
2018-06-08T00:45:15.103Z,0.00
2018-06-08T00:46:15.056Z,0.00
2018-06-08T00:47:15.028Z,0.00
2018-06-08T00:48:14.999Z,0.00
2018-06-08T00:49:14.981Z,0.00
2018-06-08T00:50:14.970Z,0.00
2018-06-08T00:51:14.957Z,0.00
2018-06-08T00:52:14.914Z,0.00
2018-06-08T00:53:14.895Z,0.00
2018-06-08T00:54:14.878Z,0.00
2018-06-08T00:55:14.834Z,0.00
2018-06-08T00:56:14.823Z,0.00
2018-06-08T00:57:14.794Z,0.00
2018-06-08T00:58:14.801Z,0.00
2018-06-08T00:59:14.747Z,0.00
2018-06-08T01:00:14.727Z,0.00
2018-06-08T01:01:14.702Z,0.00
2018-06-08T01:02:14.676Z,0.00
2018-06-08T01:03:14.657Z,0.00
2018-06-08T01:04:14.637Z,0.00
2018-06-08T01:05:14.604Z,0.00
2018-06-08T01:06:14.596Z,0.00
2018-06-08T01:07:14.591Z,0.00
2018-06-08T01:08:14.531Z,0.00
2018-06-08T01:09:14.511Z,0.00
2018-06-08T01:10:14.492Z,0.00
2018-06-08T01:11:14.497Z,0.00
2018-06-08T01:12:14.438Z,0.00
2018-06-08T01:13:14.420Z,0.00
2018-06-08T01:14:14.386Z,0.00
2018-06-08T01:15:14.361Z,0.00
2018-06-08T01:16:14.349Z,0.00
2018-06-08T01:17:14.322Z,0.00
2018-06-08T01:18:14.295Z,0.00
2018-06-08T01:19:14.268Z,0.00
2018-06-08T01:20:14.254Z,0.00
2018-06-08T01:21:14.243Z,0.00
2018-06-08T01:22:14.197Z,0.00
2018-06-08T01:23:14.180Z,0.00
2018-06-08T01:24:14.151Z,0.00
2018-06-08T01:25:14.127Z,0.00
2018-06-08T01:26:14.113Z,0.00
2018-06-08T01:27:14.089Z,0.00
2018-06-08T01:28:14.070Z,0.00
2018-06-08T01:29:14.038Z,0.00
2018-06-08T01:30:14.009Z,0.00
2018-06-08T01:31:14.008Z,0.00
2018-06-08T01:32:13.970Z,0.00
2018-06-08T01:33:13.953Z,0.00
2018-06-08T01:34:13.911Z,0.00
2018-06-08T01:35:13.890Z,0.00
2018-06-08T01:36:13.871Z,0.00
2018-06-08T01:37:13.839Z,0.00
2018-06-08T01:38:13.856Z,0.00
2018-06-08T01:39:13.798Z,0.00
2018-06-08T01:40:13.776Z,0.00
2018-06-08T01:41:13.776Z,0.00
2018-06-08T01:42:13.781Z,0.00
2018-06-08T01:43:13.716Z,0.00
2018-06-08T01:44:13.680Z,0.00
2018-06-08T01:45:13.672Z,0.00
2018-06-08T01:46:13.643Z,0.00
2018-06-08T01:47:13.613Z,0.00
2018-06-08T01:48:13.588Z,0.00
2018-06-08T01:49:13.569Z,0.00
2018-06-08T01:50:13.559Z,0.00
2018-06-08T01:51:13.532Z,0.00
2018-06-08T01:52:13.506Z,0.00
2018-06-08T01:53:13.506Z,0.00
2018-06-08T01:54:13.455Z,0.00
2018-06-08T01:55:13.425Z,0.00
2018-06-08T01:56:13.443Z,0.00
2018-06-08T01:57:13.510Z,0.00
2018-06-08T01:58:13.362Z,0.00
2018-06-08T01:59:13.370Z,0.00
2018-06-08T02:00:13.297Z,0.00
2018-06-08T02:01:13.278Z,0.00
2018-06-08T02:02:13.256Z,0.00
2018-06-08T02:03:13.242Z,0.00
2018-06-08T02:04:13.212Z,0.00
2018-06-08T02:05:13.188Z,0.00
2018-06-08T02:06:13.208Z,0.00
2018-06-08T02:07:13.166Z,0.00
2018-06-08T02:08:13.120Z,0.00
2018-06-08T02:09:13.126Z,0.00
2018-06-08T02:10:13.118Z,0.00
2018-06-08T02:11:13.050Z,0.00
2018-06-08T02:12:13.054Z,0.00
2018-06-08T02:13:13.041Z,0.00
2018-06-08T02:14:12.980Z,0.00
2018-06-08T02:15:12.953Z,0.00
2018-06-08T02:16:12.961Z,0.00
2018-06-08T02:17:12.892Z,0.00
2018-06-08T02:18:12.888Z,0.00
2018-06-08T02:19:12.879Z,0.00
2018-06-08T02:20:12.846Z,0.00
2018-06-08T02:21:12.799Z,0.00
2018-06-08T02:22:12.790Z,0.00
2018-06-08T02:23:12.814Z,0.00
2018-06-08T02:24:12.735Z,0.00
2018-06-08T02:25:12.716Z,0.00
2018-06-08T02:26:12.682Z,0.00
2018-06-08T02:27:12.657Z,0.00
2018-06-08T02:28:12.640Z,0.00
2018-06-08T02:29:12.608Z,0.00
2018-06-08T02:30:12.598Z,0.00
2018-06-08T02:31:12.568Z,0.00
2018-06-08T02:32:12.537Z,0.00
2018-06-08T02:33:12.522Z,0.00
2018-06-08T02:34:12.497Z,0.00
2018-06-08T02:35:12.465Z,0.00
2018-06-08T02:36:12.448Z,0.00
2018-06-08T02:37:12.426Z,0.00
2018-06-08T02:38:12.426Z,0.00
2018-06-08T02:39:12.375Z,0.00
2018-06-08T02:40:12.432Z,0.00
2018-06-08T02:41:12.333Z,0.00
2018-06-08T02:42:12.310Z,0.00
2018-06-08T02:43:12.284Z,0.00
2018-06-08T02:44:12.255Z,0.00
2018-06-08T02:45:12.241Z,0.00
2018-06-08T02:46:12.245Z,0.00
2018-06-08T02:47:12.208Z,0.00
2018-06-08T02:48:12.166Z,0.00
2018-06-08T02:49:12.133Z,0.00
2018-06-08T02:50:12.128Z,0.00
2018-06-08T02:51:12.092Z,0.00
2018-06-08T02:52:12.066Z,4.00
2018-06-08T02:53:12.044Z,4.00
2018-06-08T02:54:12.024Z,4.00
2018-06-08T02:55:12.015Z,0.00
2018-06-08T02:56:11.980Z,4.00
2018-06-08T02:57:11.952Z,4.00
2018-06-08T02:58:11.931Z,4.00
2018-06-08T02:59:11.897Z,4.00
2018-06-08T03:00:11.895Z,8.00
2018-06-08T03:01:11.848Z,4.00
2018-06-08T03:02:11.853Z,4.00
2018-06-08T03:03:11.828Z,8.00
2018-06-08T03:04:11.788Z,8.00
2018-06-08T03:05:11.768Z,8.00
2018-06-08T03:06:11.763Z,8.00
2018-06-08T03:07:11.742Z,16.00
2018-06-08T03:08:11.708Z,16.00
2018-06-08T03:09:11.675Z,16.00
2018-06-08T03:10:11.659Z,20.00
2018-06-08T03:11:11.616Z,20.00
2018-06-08T03:12:11.679Z,16.00
2018-06-08T03:13:11.564Z,20.00
2018-06-08T03:14:11.547Z,24.00
2018-06-08T03:15:11.542Z,28.00
2018-06-08T03:16:11.533Z,28.00
2018-06-08T03:17:11.477Z,32.00
2018-06-08T03:18:11.451Z,32.00
2018-06-08T03:19:11.442Z,36.00
2018-06-08T03:20:11.404Z,36.00
2018-06-08T03:21:11.376Z,40.00
2018-06-08T03:22:11.396Z,44.00
2018-06-08T03:23:11.372Z,48.00
2018-06-08T03:24:11.356Z,52.00
2018-06-08T03:25:11.293Z,56.00
2018-06-08T03:26:11.295Z,60.00
2018-06-08T03:27:11.294Z,68.00
2018-06-08T03:28:11.219Z,72.00
2018-06-08T03:29:11.212Z,80.00
2018-06-08T03:30:11.168Z,88.00
2018-06-08T03:31:11.139Z,96.00
2018-06-08T03:32:11.120Z,104.00
2018-06-08T03:33:11.110Z,116.00
2018-06-08T03:34:11.070Z,132.00
2018-06-08T03:35:11.059Z,144.00
2018-06-08T03:36:11.061Z,160.00
2018-06-08T03:37:11.000Z,168.00
2018-06-08T03:38:10.977Z,180.00
2018-06-08T03:39:10.957Z,192.00
2018-06-08T03:40:10.986Z,200.00
2018-06-08T03:41:10.912Z,212.00
2018-06-08T03:42:10.920Z,224.00
2018-06-08T03:43:10.876Z,232.00
2018-06-08T03:44:10.829Z,240.00
2018-06-08T03:45:10.813Z,248.00
2018-06-08T03:46:10.791Z,252.00
2018-06-08T03:47:10.768Z,264.00
2018-06-08T03:48:10.744Z,264.00
2018-06-08T03:49:10.753Z,272.00
2018-06-08T03:50:10.695Z,276.00
2018-06-08T03:51:10.666Z,276.00
2018-06-08T03:52:10.652Z,276.00
2018-06-08T03:53:10.653Z,276.00
2018-06-08T03:54:10.609Z,268.00
2018-06-08T03:55:10.585Z,268.00
2018-06-08T03:56:10.587Z,268.00
2018-06-08T03:57:10.525Z,260.00
2018-06-08T03:58:10.504Z,260.00
2018-06-08T03:59:10.494Z,268.00
2018-06-08T04:00:10.511Z,280.00
2018-06-08T04:01:10.428Z,288.00
2018-06-08T04:02:10.408Z,300.00
2018-06-08T04:03:10.390Z,312.00
2018-06-08T04:04:10.356Z,312.00
2018-06-08T04:05:10.345Z,316.00
2018-06-08T04:06:10.314Z,320.00
2018-06-08T04:07:10.296Z,324.00
2018-06-08T04:08:10.269Z,320.00
2018-06-08T04:09:10.256Z,324.00
2018-06-08T04:10:10.225Z,336.00
2018-06-08T04:11:10.187Z,348.00
2018-06-08T04:12:10.174Z,356.00
2018-06-08T04:13:10.193Z,384.00
2018-06-08T04:14:10.124Z,404.00
2018-06-08T04:15:10.097Z,424.00
2018-06-08T04:16:10.087Z,448.00
2018-06-08T04:17:10.045Z,472.00
2018-06-08T04:18:10.028Z,504.00
2018-06-08T04:19:10.008Z,536.00
2018-06-08T04:20:09.983Z,568.00
2018-06-08T04:21:09.962Z,596.00
2018-06-08T04:22:09.936Z,632.00
2018-06-08T04:23:09.908Z,656.00
2018-06-08T04:24:09.882Z,676.00
2018-06-08T04:25:09.867Z,688.00
2018-06-08T04:26:09.844Z,708.00
2018-06-08T04:27:09.819Z,728.00
2018-06-08T04:28:09.782Z,756.00
2018-06-08T04:29:09.763Z,788.00
2018-06-08T04:30:09.744Z,820.00
2018-06-08T04:31:09.720Z,856.00
2018-06-08T04:32:09.695Z,896.00
2018-06-08T04:33:09.705Z,944.00
2018-06-08T04:34:09.644Z,988.00
2018-06-08T04:35:09.624Z,1044.00
2018-06-08T04:36:09.617Z,1100.00
2018-06-08T04:37:09.581Z,1160.00
2018-06-08T04:38:09.553Z,1220.00
2018-06-08T04:39:09.526Z,1280.00
2018-06-08T04:40:09.531Z,1336.00
2018-06-08T04:41:09.525Z,1396.00
2018-06-08T04:42:09.502Z,1460.00
2018-06-08T04:43:09.477Z,1524.00
2018-06-08T04:44:09.467Z,1596.00
2018-06-08T04:45:09.443Z,1660.00
2018-06-08T04:46:09.354Z,1716.00
2018-06-08T04:47:09.332Z,1764.00
2018-06-08T04:48:09.309Z,1804.00
2018-06-08T04:49:09.293Z,1832.00
2018-06-08T04:50:09.279Z,1848.00
2018-06-08T04:51:09.244Z,1864.00
2018-06-08T04:52:09.231Z,1872.00
2018-06-08T04:53:09.199Z,1892.00
2018-06-08T04:54:09.166Z,1916.00
2018-06-08T04:55:09.195Z,1956.00
2018-06-08T04:56:09.142Z,2008.00
2018-06-08T04:57:09.097Z,2064.00
2018-06-08T04:58:09.090Z,2132.00
2018-06-08T04:59:09.057Z,2196.00
2018-06-08T05:00:09.038Z,2256.00
2018-06-08T05:01:09.007Z,2316.00
2018-06-08T05:02:08.986Z,2364.00
2018-06-08T05:03:08.970Z,2412.00
2018-06-08T05:04:08.963Z,2456.00
2018-06-08T05:05:08.909Z,2504.00
2018-06-08T05:06:08.888Z,2556.00
2018-06-08T05:07:08.863Z,2624.00
2018-06-08T05:08:08.839Z,2700.00
2018-06-08T05:09:08.821Z,2764.00
2018-06-08T05:10:08.854Z,2824.00
2018-06-08T05:11:08.777Z,2864.00
2018-06-08T05:12:08.756Z,2904.00
2018-06-08T05:13:08.726Z,2932.00
2018-06-08T05:14:08.705Z,2960.00
2018-06-08T05:15:08.712Z,2996.00
2018-06-08T05:16:08.661Z,3032.00
2018-06-08T05:17:08.633Z,3068.00
2018-06-08T05:18:08.613Z,3104.00
2018-06-08T05:19:08.632Z,3116.00
2018-06-08T05:20:08.624Z,3112.00
2018-06-08T05:21:08.597Z,3092.00
2018-06-08T05:22:08.525Z,3064.00
2018-06-08T05:23:08.504Z,3040.00
2018-06-08T05:24:08.532Z,3028.00
2018-06-08T05:25:08.463Z,3028.00
2018-06-08T05:26:08.447Z,3048.00
2018-06-08T05:27:08.399Z,3084.00
2018-06-08T05:28:08.374Z,3128.00
2018-06-08T05:29:08.355Z,3172.00
2018-06-08T05:30:08.536Z,3208.00
2018-06-08T05:31:08.320Z,3240.00
2018-06-08T05:32:08.285Z,3272.00
2018-06-08T05:33:08.271Z,3300.00
2018-06-08T05:34:08.262Z,3340.00
2018-06-08T05:35:08.226Z,3376.00
2018-06-08T05:36:08.214Z,3408.00
2018-06-08T05:37:08.181Z,3436.00
2018-06-08T05:38:08.153Z,3456.00
2018-06-08T05:39:08.136Z,3472.00
2018-06-08T05:40:08.105Z,3484.00
2018-06-08T05:41:08.080Z,3496.00
2018-06-08T05:42:08.068Z,3508.00
2018-06-08T05:43:08.046Z,3512.00
2018-06-08T05:44:08.025Z,3524.00
2018-06-08T05:45:07.999Z,3508.00
2018-06-08T05:46:07.968Z,3508.00
2018-06-08T05:47:07.952Z,3512.00
2018-06-08T05:48:07.961Z,3516.00
2018-06-08T05:49:07.905Z,3520.00
2018-06-08T05:50:07.884Z,3532.00
2018-06-08T05:51:07.867Z,3560.00
2018-06-08T05:52:07.832Z,3592.00
2018-06-08T05:53:07.808Z,3628.00
2018-06-08T05:54:07.809Z,3672.00
2018-06-08T05:55:07.771Z,3708.00
2018-06-08T05:56:07.781Z,3748.00
2018-06-08T05:57:07.788Z,3764.00
2018-06-08T05:58:07.700Z,3776.00
2018-06-08T05:59:07.677Z,3796.00
2018-06-08T06:00:07.655Z,3836.00
2018-06-08T06:01:07.658Z,3896.00
2018-06-08T06:02:07.613Z,3952.00
2018-06-08T06:03:07.591Z,4036.00
2018-06-08T06:04:07.630Z,4136.00
2018-06-08T06:05:07.543Z,4252.00
2018-06-08T06:06:07.523Z,4368.00
2018-06-08T06:07:07.500Z,4460.00
2018-06-08T06:08:07.522Z,4536.00
2018-06-08T06:09:07.450Z,4624.00
2018-06-08T06:10:07.433Z,4712.00
2018-06-08T06:11:07.408Z,4792.00
2018-06-08T06:12:07.378Z,4872.00
2018-06-08T06:13:07.386Z,4936.00
2018-06-08T06:14:07.344Z,4972.00
2018-06-08T06:15:07.320Z,5000.00
2018-06-08T06:16:07.303Z,5032.00
2018-06-08T06:17:07.270Z,5080.00
2018-06-08T06:18:07.250Z,5124.00
2018-06-08T06:19:07.247Z,5160.00
2018-06-08T06:20:07.212Z,5192.00
2018-06-08T06:21:07.188Z,5192.00
2018-06-08T06:22:07.158Z,5192.00
2018-06-08T06:23:07.137Z,5192.00
2018-06-08T06:24:07.127Z,5184.00
2018-06-08T06:25:07.106Z,5172.00
2018-06-08T06:26:07.084Z,5156.00
2018-06-08T06:27:07.066Z,5128.00
2018-06-08T06:28:07.028Z,5104.00
2018-06-08T06:29:07.003Z,5088.00
2018-06-08T06:30:06.981Z,5084.00
2018-06-08T06:31:06.955Z,5076.00
2018-06-08T06:32:06.936Z,5072.00
2018-06-08T06:33:06.935Z,5064.00
2018-06-08T06:34:06.895Z,5048.00
2018-06-08T06:35:06.885Z,5016.00
2018-06-08T06:36:06.844Z,4968.00
2018-06-08T06:37:06.825Z,4916.00
2018-06-08T06:38:06.811Z,4864.00
2018-06-08T06:39:06.799Z,4816.00
2018-06-08T06:40:06.766Z,4768.00
2018-06-08T06:41:06.739Z,4716.00
2018-06-08T06:42:06.738Z,4648.00
2018-06-08T06:43:06.689Z,4588.00
2018-06-08T06:44:06.665Z,4524.00
2018-06-08T06:45:06.645Z,4472.00
2018-06-08T06:46:06.644Z,4428.00
2018-06-08T06:47:06.613Z,4408.00
2018-06-08T06:48:06.587Z,4424.00
2018-06-08T06:49:06.567Z,4464.00
2018-06-08T06:50:06.533Z,4516.00
2018-06-08T06:51:06.512Z,4576.00
2018-06-08T06:52:06.498Z,4636.00
2018-06-08T06:53:06.507Z,4684.00
2018-06-08T06:54:06.450Z,4728.00
2018-06-08T06:55:06.433Z,4764.00
2018-06-08T06:56:06.438Z,4764.00
2018-06-08T06:57:06.392Z,4776.00
2018-06-08T06:58:06.391Z,4756.00
2018-06-08T06:59:06.367Z,4736.00
2018-06-08T07:00:06.322Z,4716.00
2018-06-08T07:01:06.304Z,4712.00
2018-06-08T07:02:06.305Z,4708.00
2018-06-08T07:03:06.261Z,4700.00
2018-06-08T07:04:06.229Z,4704.00
2018-06-08T07:05:06.206Z,4728.00
2018-06-08T07:06:06.194Z,4788.00
2018-06-08T07:07:06.201Z,4836.00
2018-06-08T07:08:06.199Z,4880.00
2018-06-08T07:09:06.123Z,4920.00
2018-06-08T07:10:06.113Z,4960.00
2018-06-08T07:11:06.076Z,4964.00
2018-06-08T07:12:06.068Z,4988.00
2018-06-08T07:13:06.043Z,4996.00
2018-06-08T07:14:06.012Z,5040.00
2018-06-08T07:15:05.996Z,5084.00
2018-06-08T07:16:06.003Z,5128.00
2018-06-08T07:17:05.947Z,5212.00
2018-06-08T07:18:05.918Z,5360.00
2018-06-08T07:19:05.908Z,5440.00
2018-06-08T07:20:05.885Z,5488.00
2018-06-08T07:21:05.862Z,5532.00
2018-06-08T07:22:05.836Z,5548.00
2018-06-08T07:23:05.814Z,5564.00
2018-06-08T07:24:05.848Z,5608.00
2018-06-08T07:25:05.793Z,5656.00
2018-06-08T07:26:05.754Z,5740.00
2018-06-08T07:27:05.719Z,5868.00
2018-06-08T07:28:05.698Z,6084.00
2018-06-08T07:29:05.684Z,6128.00
2018-06-08T07:30:05.661Z,6304.00
2018-06-08T07:31:05.650Z,6384.00
2018-06-08T07:32:05.678Z,6440.00
2018-06-08T07:33:05.604Z,6704.00
2018-06-08T07:34:05.592Z,6840.00
2018-06-08T07:35:05.562Z,6848.00
2018-06-08T07:36:05.528Z,7060.00
2018-06-08T07:37:05.530Z,7172.00
2018-06-08T07:38:05.494Z,6792.00
2018-06-08T07:39:05.469Z,6548.00
2018-06-08T07:40:05.497Z,6572.00
2018-06-08T07:41:05.421Z,6472.00
2018-06-08T07:42:05.407Z,6228.00
2018-06-08T07:43:05.376Z,6000.00
2018-06-08T07:44:05.376Z,5828.00
2018-06-08T07:45:05.341Z,5788.00
2018-06-08T07:46:05.336Z,5564.00
2018-06-08T07:47:05.294Z,5280.00
2018-06-08T07:48:05.268Z,4972.00
2018-06-08T07:49:05.246Z,4900.00
2018-06-08T07:50:05.253Z,4988.00
2018-06-08T07:51:05.258Z,5164.00
2018-06-08T07:52:05.186Z,5280.00
2018-06-08T07:53:05.294Z,5324.00
2018-06-08T07:54:05.192Z,5304.00
2018-06-08T07:55:05.141Z,5316.00
2018-06-08T07:56:05.107Z,5444.00
2018-06-08T07:57:05.111Z,5572.00
2018-06-08T07:58:05.064Z,5772.00
2018-06-08T07:59:05.037Z,5956.00
2018-06-08T08:00:05.023Z,6104.00
2018-06-08T08:01:04.988Z,6104.00
2018-06-08T08:02:04.983Z,6136.00
2018-06-08T08:03:04.958Z,6248.00
2018-06-08T08:04:04.950Z,6432.00
2018-06-08T08:05:04.950Z,6560.00
2018-06-08T08:06:04.905Z,6504.00
2018-06-08T08:07:04.867Z,6348.00
2018-06-08T08:08:04.872Z,6236.00
2018-06-08T08:09:04.830Z,6432.00
2018-06-08T08:10:04.802Z,6428.00
2018-06-08T08:11:04.796Z,6556.00
2018-06-08T08:12:04.785Z,6316.00
2018-06-08T08:13:04.866Z,6236.00
2018-06-08T08:14:04.724Z,6196.00
2018-06-08T08:15:04.704Z,6164.00
2018-06-08T08:16:04.670Z,6088.00
2018-06-08T08:17:04.656Z,5780.00
2018-06-08T08:18:04.630Z,4984.00
2018-06-08T08:19:04.621Z,4708.00
2018-06-08T08:20:04.594Z,4856.00
2018-06-08T08:21:04.571Z,4248.00
2018-06-08T08:22:04.567Z,4272.00
2018-06-08T08:23:04.522Z,4220.00
2018-06-08T08:24:04.499Z,3760.00
2018-06-08T08:25:04.483Z,3460.00
2018-06-08T08:26:04.479Z,3264.00
2018-06-08T08:27:04.441Z,3148.00
2018-06-08T08:28:04.423Z,3056.00
2018-06-08T08:29:04.400Z,3036.00
2018-06-08T08:30:04.363Z,3100.00
2018-06-08T08:31:04.347Z,3188.00
2018-06-08T08:32:04.326Z,3336.00
2018-06-08T08:33:04.311Z,3568.00
2018-06-08T08:34:04.286Z,3852.00
2018-06-08T08:35:04.262Z,4148.00
2018-06-08T08:36:04.325Z,4464.00
2018-06-08T08:37:04.245Z,4848.00
2018-06-08T08:38:04.194Z,5288.00
2018-06-08T08:39:04.177Z,5776.00
2018-06-08T08:40:04.166Z,6340.00
2018-06-08T08:41:04.124Z,7096.00
2018-06-08T08:42:04.119Z,7644.00
2018-06-08T08:43:04.100Z,8032.00
2018-06-08T08:44:04.071Z,8300.00
2018-06-08T08:45:04.037Z,8384.00
2018-06-08T08:46:04.064Z,8416.00
2018-06-08T08:47:04.019Z,8236.00
2018-06-08T08:48:03.977Z,8000.00
2018-06-08T08:49:03.972Z,7596.00
2018-06-08T08:50:03.937Z,7020.00
2018-06-08T08:51:03.917Z,6420.00
2018-06-08T08:52:03.927Z,6000.00
2018-06-08T08:53:03.869Z,5864.00
2018-06-08T08:54:03.850Z,5864.00
2018-06-08T08:55:03.843Z,6048.00
2018-06-08T08:56:03.820Z,6196.00
2018-06-08T08:57:03.810Z,6400.00
2018-06-08T08:58:03.768Z,6640.00
2018-06-08T08:59:03.741Z,6944.00
2018-06-08T09:00:03.730Z,7348.00
2018-06-08T09:01:03.704Z,7928.00
2018-06-08T09:02:03.686Z,8532.00
2018-06-08T09:03:03.790Z,9128.00
2018-06-08T09:04:03.636Z,9844.00
2018-06-08T09:05:03.624Z,10712.00
2018-06-08T09:06:03.613Z,11376.00
2018-06-08T09:07:03.580Z,11760.00
2018-06-08T09:08:03.550Z,11856.00
2018-06-08T09:09:03.534Z,11844.00
2018-06-08T09:10:03.526Z,11524.00
2018-06-08T09:11:03.501Z,11248.00
2018-06-08T09:12:03.471Z,11524.00
2018-06-08T09:13:03.452Z,11308.00
2018-06-08T09:14:03.430Z,11440.00
2018-06-08T09:15:03.412Z,10932.00
2018-06-08T09:16:03.385Z,10452.00
2018-06-08T09:17:03.371Z,9880.00
2018-06-08T09:18:03.360Z,9200.00
2018-06-08T09:19:03.328Z,8816.00
2018-06-08T09:20:03.316Z,8672.00
2018-06-08T09:21:03.335Z,8776.00
2018-06-08T09:22:03.312Z,9220.00
2018-06-08T09:23:03.245Z,9716.00
2018-06-08T09:24:03.247Z,10120.00
2018-06-08T09:25:03.234Z,10060.00
2018-06-08T09:26:03.198Z,9768.00
2018-06-08T09:27:03.266Z,9252.00
2018-06-08T09:28:03.173Z,8760.00
2018-06-08T09:29:03.219Z,8452.00
2018-06-08T09:30:03.115Z,8240.00
2018-06-08T09:31:03.089Z,8276.00
2018-06-08T09:32:03.076Z,8404.00
2018-06-08T09:33:03.062Z,8648.00
2018-06-08T09:34:03.070Z,9064.00
2018-06-08T09:35:03.033Z,9468.00
2018-06-08T09:36:03.015Z,9800.00
2018-06-08T09:37:02.965Z,9972.00
2018-06-08T09:38:02.954Z,9992.00
2018-06-08T09:39:02.945Z,10032.00
2018-06-08T09:40:02.972Z,9880.00
2018-06-08T09:41:02.886Z,9712.00
2018-06-08T09:42:02.864Z,9832.00
2018-06-08T09:43:02.848Z,9644.00
2018-06-08T09:44:02.838Z,9520.00
2018-06-08T09:45:02.812Z,9500.00
2018-06-08T09:46:02.789Z,9624.00
2018-06-08T09:47:02.777Z,9652.00
2018-06-08T09:48:02.792Z,9544.00
2018-06-08T09:49:02.731Z,9496.00
2018-06-08T09:50:02.710Z,8992.00
2018-06-08T09:51:02.689Z,8456.00
2018-06-08T09:52:02.664Z,8108.00
2018-06-08T09:53:02.667Z,8280.00
2018-06-08T09:54:02.638Z,8536.00
2018-06-08T09:55:02.626Z,8864.00
2018-06-08T09:56:02.582Z,9104.00
2018-06-08T09:57:02.574Z,9268.00
2018-06-08T09:58:02.549Z,9128.00
2018-06-08T09:59:02.545Z,8668.00
2018-06-08T10:00:02.507Z,8208.00
2018-06-08T10:01:02.487Z,7696.00
2018-06-08T10:02:02.467Z,7200.00
2018-06-08T10:03:02.463Z,6636.00
2018-06-08T10:04:02.429Z,6344.00
2018-06-08T10:05:02.407Z,6032.00
2018-06-08T10:06:02.389Z,5756.00
2018-06-08T10:07:02.390Z,5568.00
2018-06-08T10:08:02.340Z,5408.00
2018-06-08T10:09:02.318Z,5244.00
2018-06-08T10:10:02.313Z,5108.00
2018-06-08T10:11:02.284Z,5140.00
2018-06-08T10:12:02.273Z,5140.00
2018-06-08T10:13:02.245Z,5180.00
2018-06-08T10:14:02.228Z,5276.00
2018-06-08T10:15:02.201Z,5444.00
2018-06-08T10:16:02.217Z,5696.00
2018-06-08T10:17:02.161Z,6080.00
2018-06-08T10:18:02.146Z,6508.00
2018-06-08T10:19:02.124Z,6964.00
2018-06-08T10:20:02.098Z,7208.00
2018-06-08T10:21:02.075Z,6856.00
2018-06-08T10:22:02.110Z,6780.00
2018-06-08T10:23:02.033Z,6844.00
2018-06-08T10:24:02.013Z,6536.00
2018-06-08T10:25:02.013Z,6276.00
2018-06-08T10:26:01.969Z,6472.00
2018-06-08T10:27:01.955Z,6088.00
2018-06-08T10:28:01.930Z,5500.00
2018-06-08T10:29:01.907Z,4832.00
2018-06-08T10:30:01.907Z,4256.00
2018-06-08T10:31:01.870Z,4328.00
2018-06-08T10:32:01.849Z,4748.00
2018-06-08T10:33:01.841Z,5160.00
2018-06-08T10:34:01.873Z,5456.00
2018-06-08T10:35:01.780Z,5608.00
2018-06-08T10:36:01.773Z,5656.00
2018-06-08T10:37:01.804Z,5628.00
2018-06-08T10:38:01.718Z,5492.00
2018-06-08T10:39:01.698Z,5452.00
2018-06-08T10:40:01.741Z,5512.00
2018-06-08T10:41:01.662Z,5656.00
2018-06-08T10:42:01.639Z,5940.00
2018-06-08T10:43:01.618Z,6208.00
2018-06-08T10:44:01.614Z,6408.00
2018-06-08T10:45:01.592Z,6492.00
2018-06-08T10:46:01.552Z,6452.00
2018-06-08T10:47:01.546Z,6344.00
2018-06-08T10:48:01.507Z,6196.00
2018-06-08T10:49:01.484Z,6060.00
2018-06-08T10:50:01.479Z,5948.00
2018-06-08T10:51:01.483Z,5892.00
2018-06-08T10:52:01.414Z,5840.00
2018-06-08T10:53:01.395Z,5744.00
2018-06-08T10:54:01.401Z,5832.00
2018-06-08T10:55:01.360Z,5904.00
2018-06-08T10:56:01.335Z,5924.00
2018-06-08T10:57:01.312Z,5908.00
2018-06-08T10:58:01.295Z,5852.00
2018-06-08T10:59:01.264Z,5732.00
2018-06-08T11:00:01.253Z,5636.00
2018-06-08T11:01:01.228Z,5532.00
2018-06-08T11:02:01.219Z,5492.00
2018-06-08T11:03:01.186Z,5788.00
2018-06-08T11:04:01.168Z,6292.00
2018-06-08T11:05:01.143Z,6900.00
2018-06-08T11:06:01.125Z,7308.00
2018-06-08T11:07:01.089Z,7464.00
2018-06-08T11:08:01.082Z,7768.00
2018-06-08T11:09:01.073Z,7840.00
2018-06-08T11:10:01.083Z,7956.00
2018-06-08T11:11:01.008Z,8136.00
2018-06-08T11:12:00.999Z,8176.00
2018-06-08T11:13:00.961Z,8024.00
2018-06-08T11:14:00.948Z,8060.00
2018-06-08T11:15:00.936Z,8060.00
2018-06-08T11:16:00.927Z,8344.00
2018-06-08T11:17:00.915Z,8648.00
2018-06-08T11:18:00.850Z,8880.00
2018-06-08T11:19:00.838Z,9152.00
2018-06-08T11:20:00.813Z,9320.00
2018-06-08T11:21:00.792Z,9492.00
2018-06-08T11:22:00.784Z,9544.00
2018-06-08T11:23:00.765Z,9564.00
2018-06-08T11:24:00.736Z,9516.00
2018-06-08T11:25:00.710Z,9372.00
2018-06-08T11:26:00.694Z,9356.00
2018-06-08T11:27:00.722Z,9676.00
2018-06-08T11:28:00.666Z,9796.00
2018-06-08T11:29:00.634Z,9796.00
2018-06-08T11:30:00.604Z,9828.00
2018-06-08T11:31:00.590Z,9816.00
2018-06-08T11:32:00.596Z,9768.00
2018-06-08T11:33:00.550Z,9732.00
2018-06-08T11:34:00.530Z,9728.00
2018-06-08T11:35:00.508Z,9736.00
2018-06-08T11:36:00.575Z,9708.00
2018-06-08T11:37:00.463Z,9652.00
2018-06-08T11:38:00.449Z,9648.00
2018-06-08T11:39:00.455Z,9676.00
2018-06-08T11:40:00.406Z,9700.00
2018-06-08T11:41:00.379Z,9644.00
2018-06-08T11:42:00.370Z,9648.00
2018-06-08T11:43:00.369Z,9684.00
2018-06-08T11:44:00.318Z,9604.00
2018-06-08T11:45:00.297Z,9644.00
2018-06-08T11:46:00.296Z,9644.00
2018-06-08T11:47:00.255Z,9416.00
2018-06-08T11:48:00.238Z,9256.00
2018-06-08T11:49:00.240Z,9196.00
2018-06-08T11:50:00.209Z,9232.00
2018-06-08T11:51:00.175Z,9200.00
2018-06-08T11:52:00.161Z,9040.00
2018-06-08T11:53:00.157Z,8740.00
2018-06-08T11:54:00.131Z,8456.00
2018-06-08T11:55:00.097Z,8128.00
2018-06-08T11:56:00.091Z,7688.00
2018-06-08T11:57:00.416Z,7396.00
2018-06-08T11:58:00.035Z,7168.00
2018-06-08T11:59:00.020Z,6768.00
2018-06-08T12:00:00.027Z,6356.00
2018-06-08T12:00:59.969Z,5940.00
2018-06-08T12:02:00.024Z,5652.00
2018-06-08T12:02:59.934Z,5836.00
2018-06-08T12:03:59.907Z,5984.00
2018-06-08T12:04:59.902Z,5996.00
2018-06-08T12:05:59.866Z,5944.00
2018-06-08T12:06:59.856Z,6048.00
2018-06-08T12:07:59.837Z,6216.00
2018-06-08T12:08:59.833Z,6288.00
2018-06-08T12:09:59.787Z,6376.00
2018-06-08T12:10:59.785Z,6576.00
2018-06-08T12:11:59.740Z,6772.00
2018-06-08T12:12:59.739Z,6860.00
2018-06-08T12:13:59.709Z,6880.00
2018-06-08T12:14:59.687Z,6908.00
2018-06-08T12:15:59.659Z,6928.00
2018-06-08T12:16:59.642Z,6928.00
2018-06-08T12:17:59.616Z,6920.00
2018-06-08T12:18:59.600Z,6956.00
2018-06-08T12:19:59.600Z,7000.00
2018-06-08T12:20:59.560Z,7020.00
2018-06-08T12:21:59.542Z,7060.00
2018-06-08T12:22:59.601Z,7124.00
2018-06-08T12:23:59.575Z,7200.00
2018-06-08T12:24:59.482Z,7284.00